createdAt,value
2018-03-18T00:00:50.012Z,0.00
2018-03-18T00:01:49.933Z,0.00
2018-03-18T00:02:49.955Z,0.00
2018-03-18T00:03:49.986Z,0.00
2018-03-18T00:04:50.014Z,0.00
2018-03-18T00:05:50.042Z,0.00
2018-03-18T00:06:50.068Z,0.00
2018-03-18T00:07:50.096Z,0.00
2018-03-18T00:08:50.123Z,0.00
2018-03-18T00:09:50.153Z,0.00
2018-03-18T00:10:50.179Z,0.00
2018-03-18T00:11:50.205Z,0.00
2018-03-18T00:12:50.234Z,0.00
2018-03-18T00:13:50.263Z,0.00
2018-03-18T00:14:50.294Z,0.00
2018-03-18T00:15:50.316Z,0.00
2018-03-18T00:16:50.344Z,0.00
2018-03-18T00:17:50.406Z,0.00
2018-03-18T00:18:50.400Z,0.00
2018-03-18T00:19:50.427Z,0.00
2018-03-18T00:20:50.454Z,0.00
2018-03-18T00:21:50.484Z,0.00
2018-03-18T00:22:50.509Z,0.00
2018-03-18T00:23:50.539Z,0.00
2018-03-18T00:24:50.568Z,0.00
2018-03-18T00:25:50.612Z,0.00
2018-03-18T00:26:50.620Z,0.00
2018-03-18T00:27:50.652Z,0.00
2018-03-18T00:28:50.679Z,0.00
2018-03-18T00:29:50.705Z,0.00
2018-03-18T00:30:50.734Z,0.00
2018-03-18T00:31:50.760Z,0.00
2018-03-18T00:32:50.790Z,0.00
2018-03-18T00:33:50.816Z,0.00
2018-03-18T00:34:50.882Z,0.00
2018-03-18T00:35:50.871Z,0.00
2018-03-18T00:36:50.897Z,0.00
2018-03-18T00:37:50.927Z,0.00
2018-03-18T00:38:50.954Z,0.00
2018-03-18T00:39:50.981Z,0.00
2018-03-18T00:40:51.008Z,0.00
2018-03-18T00:41:51.037Z,0.00
2018-03-18T00:42:51.072Z,0.00
2018-03-18T00:43:51.093Z,0.00
2018-03-18T00:44:51.121Z,0.00
2018-03-18T00:45:51.147Z,0.00
2018-03-18T00:46:51.181Z,0.00
2018-03-18T00:47:51.206Z,0.00
2018-03-18T00:48:51.244Z,0.00
2018-03-18T00:49:51.257Z,0.00
2018-03-18T00:50:51.288Z,0.00
2018-03-18T00:51:51.313Z,0.00
2018-03-18T00:52:51.339Z,0.00
2018-03-18T00:53:51.384Z,0.00
2018-03-18T00:54:51.402Z,0.00
2018-03-18T00:55:51.429Z,0.00
2018-03-18T00:56:51.454Z,0.00
2018-03-18T00:57:51.478Z,0.00
2018-03-18T00:58:51.516Z,0.00
2018-03-18T00:59:51.580Z,0.00
2018-03-18T01:00:51.563Z,0.00
2018-03-18T01:01:51.592Z,0.00
2018-03-18T01:02:51.618Z,0.00
2018-03-18T01:03:51.649Z,0.00
2018-03-18T01:04:51.675Z,0.00
2018-03-18T01:05:51.700Z,0.00
2018-03-18T01:06:51.744Z,0.00
2018-03-18T01:07:51.758Z,0.00
2018-03-18T01:08:51.792Z,0.00
2018-03-18T01:09:51.813Z,0.00
2018-03-18T01:10:51.918Z,0.00
2018-03-18T01:11:51.870Z,0.00
2018-03-18T01:12:51.895Z,0.00
2018-03-18T01:13:51.922Z,0.00
2018-03-18T01:14:51.950Z,0.00
2018-03-18T01:15:51.980Z,0.00
2018-03-18T01:16:52.011Z,0.00
2018-03-18T01:17:52.033Z,0.00
2018-03-18T01:18:52.062Z,0.00
2018-03-18T01:19:52.094Z,0.00
2018-03-18T01:20:52.122Z,0.00
2018-03-18T01:21:52.143Z,0.00
2018-03-18T01:22:52.174Z,0.00
2018-03-18T01:23:52.206Z,0.00
2018-03-18T01:24:52.231Z,0.00
2018-03-18T01:25:52.257Z,0.00
2018-03-18T01:26:52.282Z,0.00
2018-03-18T01:27:52.327Z,0.00
2018-03-18T01:28:52.343Z,0.00
2018-03-18T01:29:52.368Z,0.00
2018-03-18T01:30:52.394Z,0.00
2018-03-18T01:31:52.431Z,0.00
2018-03-18T01:32:52.453Z,0.00
2018-03-18T01:33:52.478Z,0.00
2018-03-18T01:34:52.506Z,0.00
2018-03-18T01:35:52.535Z,0.00
2018-03-18T01:36:52.577Z,0.00
2018-03-18T01:37:52.599Z,0.00
2018-03-18T01:38:52.617Z,0.00
2018-03-18T01:39:52.699Z,0.00
2018-03-18T01:40:52.675Z,0.00
2018-03-18T01:41:52.698Z,0.00
2018-03-18T01:42:52.726Z,0.00
2018-03-18T01:43:52.758Z,0.00
2018-03-18T01:44:52.781Z,0.00
2018-03-18T01:45:52.808Z,0.00
2018-03-18T01:46:52.840Z,0.00
2018-03-18T01:47:52.866Z,0.00
2018-03-18T01:48:52.892Z,0.00
2018-03-18T01:49:52.921Z,0.00
2018-03-18T01:50:52.948Z,0.00
2018-03-18T01:51:52.976Z,0.00
2018-03-18T01:52:53.005Z,0.00
2018-03-18T01:53:53.035Z,0.00
2018-03-18T01:54:53.062Z,0.00
2018-03-18T01:55:53.087Z,0.00
2018-03-18T01:56:53.151Z,0.00
2018-03-18T01:57:53.144Z,0.00
2018-03-18T01:58:53.173Z,0.00
2018-03-18T01:59:53.199Z,0.00
2018-03-18T02:00:53.243Z,0.00
2018-03-18T02:01:53.256Z,0.00
2018-03-18T02:02:53.281Z,0.00
2018-03-18T02:03:53.324Z,0.00
2018-03-18T02:04:53.336Z,0.00
2018-03-18T02:05:53.367Z,0.00
2018-03-18T02:06:53.460Z,0.00
2018-03-18T02:07:53.417Z,0.00
2018-03-18T02:08:53.453Z,0.00
2018-03-18T02:09:53.475Z,0.00
2018-03-18T02:10:53.506Z,0.00
2018-03-18T02:11:53.530Z,0.00
2018-03-18T02:12:53.556Z,0.00
2018-03-18T02:13:53.589Z,0.00
2018-03-18T02:14:53.616Z,0.00
2018-03-18T02:15:53.652Z,0.00
2018-03-18T02:16:53.670Z,0.00
2018-03-18T02:17:53.698Z,0.00
2018-03-18T02:18:53.726Z,0.00
2018-03-18T02:19:53.754Z,0.00
2018-03-18T02:20:53.789Z,0.00
2018-03-18T02:21:53.808Z,0.00
2018-03-18T02:22:53.835Z,0.00
2018-03-18T02:23:53.862Z,0.00
2018-03-18T02:24:53.890Z,0.00
2018-03-18T02:25:53.917Z,0.00
2018-03-18T02:26:53.948Z,0.00
2018-03-18T02:27:53.973Z,0.00
2018-03-18T02:28:54.000Z,0.00
2018-03-18T02:29:54.028Z,0.00
2018-03-18T02:30:54.059Z,0.00
2018-03-18T02:31:54.087Z,0.00
2018-03-18T02:32:54.190Z,0.00
2018-03-18T02:33:54.147Z,0.00
2018-03-18T02:34:54.169Z,0.00
2018-03-18T02:35:54.198Z,0.00
2018-03-18T02:36:54.221Z,0.00
2018-03-18T02:37:54.250Z,0.00
2018-03-18T02:38:54.279Z,0.00
2018-03-18T02:39:54.305Z,0.00
2018-03-18T02:40:54.339Z,0.00
2018-03-18T02:41:54.361Z,0.00
2018-03-18T02:42:54.389Z,0.00
2018-03-18T02:43:54.415Z,0.00
2018-03-18T02:44:54.442Z,0.00
2018-03-18T02:45:54.470Z,0.00
2018-03-18T02:46:54.506Z,0.00
2018-03-18T02:47:54.530Z,0.00
2018-03-18T02:48:54.563Z,0.00
2018-03-18T02:49:54.599Z,0.00
2018-03-18T02:50:54.612Z,0.00
2018-03-18T02:51:54.635Z,0.00
2018-03-18T02:52:54.665Z,0.00
2018-03-18T02:53:54.693Z,0.00
2018-03-18T02:54:54.723Z,0.00
2018-03-18T02:55:54.748Z,0.00
2018-03-18T02:56:54.776Z,0.00
2018-03-18T02:57:54.804Z,0.00
2018-03-18T02:58:54.832Z,0.00
2018-03-18T02:59:54.863Z,0.00
2018-03-18T03:00:54.888Z,0.00
2018-03-18T03:01:54.914Z,0.00
2018-03-18T03:02:54.942Z,0.00
2018-03-18T03:03:54.976Z,0.00
2018-03-18T03:04:54.998Z,0.00
2018-03-18T03:05:55.026Z,0.00
2018-03-18T03:06:55.121Z,0.00
2018-03-18T03:07:55.082Z,0.00
2018-03-18T03:08:55.108Z,0.00
2018-03-18T03:09:55.134Z,0.00
2018-03-18T03:10:55.163Z,0.00
2018-03-18T03:11:55.202Z,0.00
2018-03-18T03:12:55.218Z,0.00
2018-03-18T03:13:55.330Z,0.00
2018-03-18T03:14:55.273Z,0.00
2018-03-18T03:15:55.320Z,0.00
2018-03-18T03:16:55.329Z,0.00
2018-03-18T03:17:55.358Z,0.00
2018-03-18T03:18:55.388Z,0.00
2018-03-18T03:19:55.414Z,0.00
2018-03-18T03:20:55.442Z,0.00
2018-03-18T03:21:55.477Z,0.00
2018-03-18T03:22:55.493Z,0.00
2018-03-18T03:23:55.525Z,0.00
2018-03-18T03:24:55.549Z,0.00
2018-03-18T03:25:55.594Z,0.00
2018-03-18T03:26:55.607Z,0.00
2018-03-18T03:27:55.635Z,0.00
2018-03-18T03:28:55.664Z,0.00
2018-03-18T03:29:55.688Z,0.00
2018-03-18T03:30:55.717Z,0.00
2018-03-18T03:31:55.745Z,0.00
2018-03-18T03:32:55.773Z,0.00
2018-03-18T03:33:55.799Z,0.00
2018-03-18T03:34:55.826Z,0.00
2018-03-18T03:35:55.860Z,0.00
2018-03-18T03:36:55.885Z,0.00
2018-03-18T03:37:55.909Z,0.00
2018-03-18T03:38:55.936Z,0.00
2018-03-18T03:39:55.974Z,0.00
2018-03-18T03:40:55.991Z,0.00
2018-03-18T03:41:56.028Z,0.00
2018-03-18T03:42:56.059Z,0.00
2018-03-18T03:43:56.077Z,0.00
2018-03-18T03:44:56.106Z,0.00
2018-03-18T03:45:56.130Z,0.00
2018-03-18T03:46:56.160Z,0.00
2018-03-18T03:47:56.187Z,0.00
2018-03-18T03:48:56.232Z,0.00
2018-03-18T03:49:56.240Z,0.00
2018-03-18T03:50:56.270Z,0.00
2018-03-18T03:51:56.296Z,0.00
2018-03-18T03:52:56.328Z,0.00
2018-03-18T03:53:56.360Z,0.00
2018-03-18T03:54:56.378Z,0.00
2018-03-18T03:55:56.407Z,0.00
2018-03-18T03:56:56.435Z,0.00
2018-03-18T03:57:56.462Z,0.00
2018-03-18T03:58:56.492Z,0.00
2018-03-18T03:59:56.617Z,0.00
2018-03-18T04:00:56.548Z,0.00
2018-03-18T04:01:56.570Z,0.00
2018-03-18T04:02:56.601Z,0.00
2018-03-18T04:03:56.628Z,0.00
2018-03-18T04:04:56.654Z,0.00
2018-03-18T04:05:56.680Z,0.00
2018-03-18T04:06:56.709Z,0.00
2018-03-18T04:07:56.745Z,0.00
2018-03-18T04:08:56.764Z,0.00
2018-03-18T04:09:56.792Z,0.00
2018-03-18T04:10:56.820Z,0.00
2018-03-18T04:11:56.908Z,0.00
2018-03-18T04:12:56.875Z,0.00
2018-03-18T04:13:56.902Z,0.00
2018-03-18T04:14:56.949Z,0.00
2018-03-18T04:15:56.963Z,0.00
2018-03-18T04:16:56.991Z,0.00
2018-03-18T04:17:57.012Z,0.00
2018-03-18T04:18:57.041Z,0.00
2018-03-18T04:19:57.070Z,0.00
2018-03-18T04:20:57.098Z,0.00
2018-03-18T04:21:57.126Z,0.00
2018-03-18T04:22:57.152Z,0.00
2018-03-18T04:23:57.181Z,0.00
2018-03-18T04:24:57.207Z,0.00
2018-03-18T04:25:57.232Z,0.00
2018-03-18T04:26:57.263Z,0.00
2018-03-18T04:27:57.286Z,0.00
2018-03-18T04:28:57.380Z,0.00
2018-03-18T04:29:57.341Z,0.00
2018-03-18T04:30:57.372Z,0.00
2018-03-18T04:31:57.401Z,0.00
2018-03-18T04:32:57.427Z,0.00
2018-03-18T04:33:57.451Z,0.00
2018-03-18T04:34:57.481Z,0.00
2018-03-18T04:35:57.623Z,0.00
2018-03-18T04:36:57.534Z,0.00
2018-03-18T04:37:57.565Z,0.00
2018-03-18T04:38:57.592Z,0.00
2018-03-18T04:39:57.617Z,0.00
2018-03-18T04:40:57.644Z,0.00
2018-03-18T04:41:57.689Z,0.00
2018-03-18T04:42:57.702Z,0.00
2018-03-18T04:43:57.729Z,0.00
2018-03-18T04:44:57.755Z,0.00
2018-03-18T04:45:57.786Z,0.00
2018-03-18T04:46:57.809Z,0.00
2018-03-18T04:47:57.837Z,0.00
2018-03-18T04:48:57.865Z,0.00
2018-03-18T04:49:57.942Z,0.00
2018-03-18T04:50:57.918Z,0.00
2018-03-18T04:51:58.009Z,0.00
2018-03-18T04:52:58.076Z,0.00
2018-03-18T04:53:58.008Z,0.00
2018-03-18T04:54:58.029Z,0.00
2018-03-18T04:55:58.055Z,0.00
2018-03-18T04:56:58.084Z,0.00
2018-03-18T04:57:58.109Z,0.00
2018-03-18T04:58:58.140Z,0.00
2018-03-18T04:59:58.164Z,0.00
2018-03-18T05:00:58.195Z,0.00
2018-03-18T05:01:58.221Z,0.00
2018-03-18T05:02:58.250Z,0.00
2018-03-18T05:03:58.276Z,4.00
2018-03-18T05:04:58.384Z,4.00
2018-03-18T05:05:58.331Z,4.00
2018-03-18T05:06:58.358Z,4.00
2018-03-18T05:07:58.399Z,4.00
2018-03-18T05:08:58.411Z,4.00
2018-03-18T05:09:58.440Z,8.00
2018-03-18T05:10:58.465Z,8.00
2018-03-18T05:11:58.497Z,8.00
2018-03-18T05:12:58.521Z,8.00
2018-03-18T05:13:58.549Z,12.00
2018-03-18T05:14:58.582Z,16.00
2018-03-18T05:15:58.606Z,16.00
2018-03-18T05:16:58.632Z,24.00
2018-03-18T05:17:58.657Z,32.00
2018-03-18T05:18:58.686Z,32.00
2018-03-18T05:19:58.711Z,36.00
2018-03-18T05:20:58.739Z,48.00
2018-03-18T05:21:58.778Z,56.00
2018-03-18T05:22:58.796Z,60.00
2018-03-18T05:23:58.822Z,56.00
2018-03-18T05:24:58.849Z,52.00
2018-03-18T05:25:58.877Z,60.00
2018-03-18T05:26:58.907Z,60.00
2018-03-18T05:27:58.930Z,72.00
2018-03-18T05:28:58.957Z,88.00
2018-03-18T05:29:58.991Z,92.00
2018-03-18T05:30:59.013Z,92.00
2018-03-18T05:31:59.040Z,108.00
2018-03-18T05:32:59.069Z,120.00
2018-03-18T05:33:59.114Z,136.00
2018-03-18T05:34:59.122Z,148.00
2018-03-18T05:35:59.150Z,180.00
2018-03-18T05:36:59.176Z,192.00
2018-03-18T05:37:59.209Z,224.00
2018-03-18T05:38:59.267Z,260.00
2018-03-18T05:39:59.260Z,284.00
2018-03-18T05:40:59.289Z,316.00
2018-03-18T05:41:59.313Z,332.00
2018-03-18T05:42:59.341Z,344.00
2018-03-18T05:43:59.374Z,356.00
2018-03-18T05:44:59.399Z,420.00
2018-03-18T05:45:59.424Z,428.00
2018-03-18T05:46:59.449Z,448.00
2018-03-18T05:47:59.480Z,472.00
2018-03-18T05:48:59.510Z,492.00
2018-03-18T05:49:59.533Z,480.00
2018-03-18T05:50:59.559Z,452.00
2018-03-18T05:51:59.589Z,512.00
2018-03-18T05:52:59.622Z,588.00
2018-03-18T05:53:59.642Z,628.00
2018-03-18T05:54:59.671Z,668.00
2018-03-18T05:55:59.712Z,656.00
2018-03-18T05:56:59.726Z,668.00
2018-03-18T05:57:59.767Z,708.00
2018-03-18T05:58:59.780Z,784.00
2018-03-18T05:59:59.820Z,740.00
2018-03-18T06:00:59.836Z,752.00
2018-03-18T06:01:59.859Z,812.00
2018-03-18T06:02:59.899Z,820.00
2018-03-18T06:03:59.915Z,888.00
2018-03-18T06:04:59.942Z,932.00
2018-03-18T06:05:59.971Z,996.00
2018-03-18T06:06:59.997Z,1024.00
2018-03-18T06:08:00.058Z,1068.00
2018-03-18T06:09:00.051Z,1096.00
2018-03-18T06:10:00.081Z,1124.00
2018-03-18T06:11:00.115Z,1204.00
2018-03-18T06:12:00.134Z,1336.00
2018-03-18T06:13:00.162Z,1360.00
2018-03-18T06:14:00.199Z,1416.00
2018-03-18T06:15:00.230Z,1464.00
2018-03-18T06:16:00.252Z,1480.00
2018-03-18T06:17:00.274Z,1480.00
2018-03-18T06:18:00.329Z,1628.00
2018-03-18T06:19:00.325Z,1640.00
2018-03-18T06:20:00.360Z,1624.00
2018-03-18T06:21:00.383Z,1688.00
2018-03-18T06:22:00.407Z,1884.00
2018-03-18T06:23:00.435Z,1920.00
2018-03-18T06:24:00.462Z,2036.00
2018-03-18T06:25:00.510Z,2068.00
2018-03-18T06:26:00.516Z,2084.00
2018-03-18T06:27:00.561Z,2152.00
2018-03-18T06:28:00.572Z,2168.00
2018-03-18T06:29:00.606Z,2064.00
2018-03-18T06:30:00.625Z,2204.00
2018-03-18T06:31:00.653Z,2340.00
2018-03-18T06:32:00.781Z,2424.00
2018-03-18T06:33:00.709Z,2312.00
2018-03-18T06:34:00.737Z,2468.00
2018-03-18T06:35:00.764Z,2556.00
2018-03-18T06:36:00.789Z,2620.00
2018-03-18T06:37:00.822Z,2760.00
2018-03-18T06:38:00.844Z,2936.00
2018-03-18T06:39:00.876Z,3104.00
2018-03-18T06:40:00.904Z,3336.00
2018-03-18T06:41:00.927Z,3344.00
2018-03-18T06:42:00.963Z,3172.00
2018-03-18T06:43:00.985Z,3336.00
2018-03-18T06:44:01.010Z,3588.00
2018-03-18T06:45:01.039Z,3544.00
2018-03-18T06:46:01.065Z,3552.00
2018-03-18T06:47:01.089Z,3552.00
2018-03-18T06:48:01.120Z,3668.00
2018-03-18T06:49:01.171Z,3772.00
2018-03-18T06:50:01.176Z,3904.00
2018-03-18T06:51:01.200Z,3984.00
2018-03-18T06:52:01.228Z,4036.00
2018-03-18T06:53:01.256Z,3932.00
2018-03-18T06:54:01.289Z,3940.00
2018-03-18T06:55:01.319Z,4120.00
2018-03-18T06:56:01.338Z,4164.00
2018-03-18T06:57:01.365Z,4172.00
2018-03-18T06:58:01.392Z,4192.00
2018-03-18T06:59:01.418Z,4364.00
2018-03-18T07:00:01.449Z,4412.00
2018-03-18T07:01:01.544Z,4424.00
2018-03-18T07:02:01.504Z,4528.00
2018-03-18T07:03:01.529Z,4444.00
2018-03-18T07:04:01.559Z,4524.00
2018-03-18T07:05:01.589Z,4808.00
2018-03-18T07:06:01.611Z,4824.00
2018-03-18T07:07:01.639Z,4820.00
2018-03-18T07:08:01.669Z,4692.00
2018-03-18T07:09:01.692Z,4700.00
2018-03-18T07:10:01.719Z,4684.00
2018-03-18T07:11:01.747Z,4712.00
2018-03-18T07:12:01.785Z,4940.00
2018-03-18T07:13:01.807Z,5076.00
2018-03-18T07:14:01.830Z,5224.00
2018-03-18T07:15:01.858Z,5212.00
2018-03-18T07:16:01.889Z,5188.00
2018-03-18T07:17:01.918Z,5612.00
2018-03-18T07:18:02.004Z,5740.00
2018-03-18T07:19:01.969Z,5716.00
2018-03-18T07:20:02.046Z,5984.00
2018-03-18T07:21:02.025Z,6208.00
2018-03-18T07:22:02.052Z,6336.00
2018-03-18T07:23:02.080Z,6412.00
2018-03-18T07:24:02.110Z,6472.00
2018-03-18T07:25:02.134Z,6540.00
2018-03-18T07:26:02.161Z,6552.00
2018-03-18T07:27:02.190Z,6564.00
2018-03-18T07:28:02.214Z,6588.00
2018-03-18T07:29:02.244Z,6644.00
2018-03-18T07:30:02.271Z,6528.00
2018-03-18T07:31:02.301Z,6476.00
2018-03-18T07:32:02.324Z,6256.00
2018-03-18T07:33:02.354Z,6240.00
2018-03-18T07:34:02.383Z,6276.00
2018-03-18T07:35:02.460Z,6332.00
2018-03-18T07:36:02.434Z,6480.00
2018-03-18T07:37:02.464Z,6660.00
2018-03-18T07:38:02.490Z,6848.00
2018-03-18T07:39:02.520Z,7028.00
2018-03-18T07:40:02.545Z,7136.00
2018-03-18T07:41:02.572Z,7208.00
2018-03-18T07:42:02.660Z,7216.00
2018-03-18T07:43:02.630Z,7188.00
2018-03-18T07:44:02.656Z,7312.00
2018-03-18T07:45:02.690Z,7440.00
2018-03-18T07:46:02.709Z,7472.00
2018-03-18T07:47:02.757Z,7576.00
2018-03-18T07:48:02.764Z,7704.00
2018-03-18T07:49:02.795Z,7664.00
2018-03-18T07:50:02.820Z,7704.00
2018-03-18T07:51:02.847Z,7756.00
2018-03-18T07:52:02.875Z,7972.00
2018-03-18T07:53:02.903Z,7996.00
2018-03-18T07:54:03.070Z,8072.00
2018-03-18T07:55:02.961Z,8180.00
2018-03-18T07:56:02.987Z,8044.00
2018-03-18T07:57:03.019Z,8128.00
2018-03-18T07:58:03.042Z,8288.00
2018-03-18T07:59:03.073Z,8464.00
2018-03-18T08:00:03.097Z,8668.00
2018-03-18T08:01:03.125Z,8728.00
2018-03-18T08:02:03.208Z,8968.00
2018-03-18T08:03:03.184Z,9144.00
2018-03-18T08:04:03.208Z,9200.00
2018-03-18T08:05:03.236Z,9256.00
2018-03-18T08:06:03.264Z,9432.00
2018-03-18T08:07:03.293Z,9464.00
2018-03-18T08:08:03.318Z,9512.00
2018-03-18T08:09:03.347Z,9632.00
2018-03-18T08:10:03.374Z,9676.00
2018-03-18T08:11:03.410Z,9704.00
2018-03-18T08:12:03.429Z,9764.00
2018-03-18T08:13:03.459Z,9816.00
2018-03-18T08:14:03.526Z,9792.00
2018-03-18T08:15:03.514Z,9684.00
2018-03-18T08:16:03.542Z,9604.00
2018-03-18T08:17:03.571Z,9704.00
2018-03-18T08:18:03.594Z,9784.00
2018-03-18T08:19:03.624Z,9844.00
2018-03-18T08:20:03.663Z,9740.00
2018-03-18T08:21:03.684Z,9836.00
2018-03-18T08:22:03.707Z,9868.00
2018-03-18T08:23:03.735Z,9888.00
2018-03-18T08:24:03.767Z,9940.00
2018-03-18T08:25:03.795Z,9924.00
2018-03-18T08:26:03.817Z,9864.00
2018-03-18T08:27:03.854Z,9836.00
2018-03-18T08:28:03.991Z,9832.00
2018-03-18T08:29:03.903Z,9896.00
2018-03-18T08:30:03.928Z,9948.00
2018-03-18T08:31:03.961Z,10028.00
2018-03-18T08:32:03.994Z,10124.00
2018-03-18T08:33:04.016Z,10152.00
2018-03-18T08:34:04.057Z,10232.00
2018-03-18T08:35:04.067Z,10344.00
2018-03-18T08:36:04.099Z,10324.00
2018-03-18T08:37:04.127Z,10512.00
2018-03-18T08:38:04.152Z,10496.00
2018-03-18T08:39:04.181Z,10596.00
2018-03-18T08:40:04.221Z,10848.00
2018-03-18T08:41:04.237Z,11012.00
2018-03-18T08:42:04.264Z,11184.00
2018-03-18T08:43:04.292Z,11356.00
2018-03-18T08:44:04.324Z,11604.00
2018-03-18T08:45:04.346Z,11756.00
2018-03-18T08:46:04.379Z,11880.00
2018-03-18T08:47:04.477Z,12064.00
2018-03-18T08:48:04.431Z,12164.00
2018-03-18T08:49:04.461Z,12360.00
2018-03-18T08:50:04.489Z,12508.00
2018-03-18T08:51:04.517Z,12440.00
2018-03-18T08:52:04.557Z,12672.00
2018-03-18T08:53:04.572Z,12836.00
2018-03-18T08:54:04.600Z,12944.00
2018-03-18T08:55:04.630Z,12996.00
2018-03-18T08:56:04.660Z,13088.00
2018-03-18T08:57:04.751Z,13244.00
2018-03-18T08:58:04.712Z,13252.00
2018-03-18T08:59:04.737Z,13196.00
2018-03-18T09:00:04.779Z,13288.00
2018-03-18T09:01:04.803Z,13280.00
2018-03-18T09:02:04.836Z,13344.00
2018-03-18T09:03:04.856Z,13396.00
2018-03-18T09:04:04.977Z,13444.00
2018-03-18T09:05:04.909Z,13508.00
2018-03-18T09:06:04.935Z,13460.00
2018-03-18T09:07:04.988Z,13304.00
2018-03-18T09:08:04.997Z,13160.00
2018-03-18T09:09:05.068Z,13244.00
2018-03-18T09:10:05.050Z,13532.00
2018-03-18T09:11:05.075Z,13544.00
2018-03-18T09:12:05.106Z,13760.00
2018-03-18T09:13:05.136Z,13844.00
2018-03-18T09:14:05.225Z,13892.00
2018-03-18T09:15:05.187Z,14016.00
2018-03-18T09:16:05.220Z,14080.00
2018-03-18T09:17:05.249Z,14140.00
2018-03-18T09:18:05.274Z,14156.00
2018-03-18T09:19:05.307Z,14184.00
2018-03-18T09:20:06.337Z,14200.00
2018-03-18T09:21:05.429Z,14216.00
2018-03-18T09:22:05.392Z,14312.00
2018-03-18T09:23:05.446Z,14388.00
2018-03-18T09:24:05.442Z,14396.00
2018-03-18T09:25:05.488Z,14472.00
2018-03-18T09:26:05.557Z,14488.00
2018-03-18T09:27:05.527Z,14476.00
2018-03-18T09:28:05.557Z,14616.00
2018-03-18T09:29:05.586Z,14736.00
2018-03-18T09:30:05.613Z,14780.00
2018-03-18T09:31:05.645Z,14860.00
2018-03-18T09:32:05.669Z,14932.00
2018-03-18T09:33:05.849Z,15032.00
2018-03-18T09:34:05.730Z,15112.00
2018-03-18T09:35:05.756Z,15148.00
2018-03-18T09:36:05.783Z,15120.00
2018-03-18T09:37:05.815Z,15132.00
2018-03-18T09:38:05.843Z,15128.00
2018-03-18T09:39:05.867Z,15100.00
2018-03-18T09:40:05.899Z,14892.00
2018-03-18T09:41:05.927Z,14848.00
2018-03-18T09:42:05.979Z,14896.00
2018-03-18T09:43:05.985Z,14768.00
2018-03-18T09:44:06.015Z,14644.00
2018-03-18T09:45:06.040Z,14484.00
2018-03-18T09:46:06.075Z,14300.00
2018-03-18T09:47:06.098Z,14168.00
2018-03-18T09:48:06.125Z,14264.00
2018-03-18T09:49:06.154Z,14148.00
2018-03-18T09:50:06.195Z,14084.00
2018-03-18T09:51:06.208Z,14164.00
2018-03-18T09:52:06.241Z,14232.00
2018-03-18T09:53:06.269Z,14032.00
2018-03-18T09:54:06.299Z,14184.00
2018-03-18T09:55:06.326Z,13760.00
2018-03-18T09:56:06.357Z,13656.00
2018-03-18T09:57:06.415Z,13600.00
2018-03-18T09:58:06.410Z,13572.00
2018-03-18T09:59:06.440Z,13556.00
2018-03-18T10:00:06.467Z,13408.00
2018-03-18T10:01:06.496Z,13348.00
2018-03-18T10:02:06.579Z,13276.00
2018-03-18T10:03:06.550Z,13240.00
2018-03-18T10:04:06.591Z,13232.00
2018-03-18T10:05:06.609Z,13408.00
2018-03-18T10:06:06.652Z,13472.00
2018-03-18T10:07:06.678Z,13572.00
2018-03-18T10:08:06.698Z,13708.00
2018-03-18T10:09:06.723Z,13672.00
2018-03-18T10:10:06.755Z,13756.00
2018-03-18T10:11:06.782Z,13736.00
2018-03-18T10:12:06.809Z,13528.00
2018-03-18T10:13:06.837Z,13488.00
2018-03-18T10:14:06.875Z,13284.00
2018-03-18T10:15:06.897Z,13160.00
2018-03-18T10:16:06.923Z,13376.00
2018-03-18T10:17:06.954Z,13360.00
2018-03-18T10:18:06.983Z,13324.00
2018-03-18T10:19:07.075Z,13584.00
2018-03-18T10:20:07.039Z,13564.00
2018-03-18T10:21:07.068Z,13400.00
2018-03-18T10:22:07.098Z,13264.00
2018-03-18T10:23:07.121Z,13152.00
2018-03-18T10:24:07.152Z,12968.00
2018-03-18T10:25:07.190Z,13024.00
2018-03-18T10:26:07.213Z,12736.00
2018-03-18T10:27:07.259Z,12576.00
2018-03-18T10:28:07.269Z,12624.00
2018-03-18T10:29:07.294Z,12560.00
2018-03-18T10:30:07.322Z,12560.00
2018-03-18T10:31:07.380Z,12524.00
2018-03-18T10:32:07.392Z,12464.00
2018-03-18T10:33:07.410Z,12456.00
2018-03-18T10:34:07.440Z,12380.00
2018-03-18T10:35:07.465Z,12280.00
2018-03-18T10:36:07.557Z,12280.00
2018-03-18T10:37:07.523Z,12348.00
2018-03-18T10:38:07.551Z,12396.00
2018-03-18T10:39:07.580Z,12488.00
2018-03-18T10:40:07.610Z,12628.00
2018-03-18T10:41:07.638Z,12468.00
2018-03-18T10:42:07.666Z,12808.00
2018-03-18T10:43:07.762Z,12744.00
2018-03-18T10:44:07.724Z,12664.00
2018-03-18T10:45:07.752Z,12388.00
2018-03-18T10:46:07.781Z,12568.00
2018-03-18T10:47:07.852Z,12244.00
2018-03-18T10:48:07.847Z,12080.00
2018-03-18T10:49:07.863Z,12156.00
2018-03-18T10:50:07.904Z,12304.00
2018-03-18T10:51:07.923Z,12352.00
2018-03-18T10:52:07.962Z,12292.00
2018-03-18T10:53:07.990Z,12248.00
2018-03-18T10:54:08.010Z,12232.00
2018-03-18T10:55:08.037Z,12304.00
2018-03-18T10:56:08.066Z,12264.00
2018-03-18T10:57:08.095Z,12216.00
2018-03-18T10:58:08.122Z,12300.00
2018-03-18T10:59:08.154Z,12308.00
2018-03-18T11:00:08.194Z,12456.00
2018-03-18T11:01:08.214Z,12240.00
2018-03-18T11:02:08.244Z,12252.00
2018-03-18T11:03:08.264Z,12476.00
2018-03-18T11:04:08.293Z,12392.00
2018-03-18T11:05:08.326Z,12180.00
2018-03-18T11:06:08.355Z,12232.00
2018-03-18T11:07:08.547Z,12324.00
2018-03-18T11:08:08.414Z,12376.00
2018-03-18T11:09:08.458Z,12436.00
2018-03-18T11:10:08.466Z,12480.00
2018-03-18T11:11:08.500Z,12592.00
2018-03-18T11:12:08.528Z,12644.00
2018-03-18T11:13:08.555Z,12588.00
2018-03-18T11:14:08.587Z,12584.00
2018-03-18T11:15:08.634Z,12588.00
2018-03-18T11:16:08.908Z,12584.00
2018-03-18T11:17:08.670Z,12588.00
2018-03-18T11:18:08.697Z,12616.00
2018-03-18T11:19:08.822Z,12640.00
2018-03-18T11:20:08.768Z,12704.00
2018-03-18T11:21:08.789Z,12736.00
2018-03-18T11:22:08.815Z,12788.00
2018-03-18T11:23:08.844Z,12916.00
2018-03-18T11:24:08.870Z,13068.00
2018-03-18T11:25:08.905Z,13192.00
2018-03-18T11:26:09.042Z,13304.00
2018-03-18T11:27:08.958Z,13424.00
2018-03-18T11:28:08.996Z,13528.00
2018-03-18T11:29:09.017Z,13640.00
2018-03-18T11:30:09.120Z,13756.00
2018-03-18T11:31:09.068Z,13860.00
2018-03-18T11:32:09.100Z,13944.00
2018-03-18T11:33:09.130Z,14064.00
2018-03-18T11:34:09.156Z,14180.00
2018-03-18T11:35:09.187Z,14260.00
2018-03-18T11:36:09.265Z,14332.00
2018-03-18T11:37:09.242Z,14400.00
2018-03-18T11:38:09.271Z,14408.00
2018-03-18T11:39:09.499Z,14372.00
2018-03-18T11:40:09.327Z,14264.00
2018-03-18T11:41:09.359Z,14160.00
2018-03-18T11:42:09.388Z,14056.00
2018-03-18T11:43:09.538Z,13972.00
2018-03-18T11:44:09.441Z,13904.00
2018-03-18T11:45:09.472Z,13880.00
2018-03-18T11:46:09.503Z,13868.00
2018-03-18T11:47:09.579Z,13864.00
2018-03-18T11:48:09.559Z,13840.00
2018-03-18T11:49:09.588Z,13780.00
2018-03-18T11:50:09.625Z,13668.00
2018-03-18T11:51:09.643Z,13536.00
2018-03-18T11:52:09.684Z,13412.00
2018-03-18T11:53:09.735Z,13388.00
2018-03-18T11:54:09.737Z,13324.00
2018-03-18T11:55:09.759Z,13480.00
2018-03-18T11:56:09.786Z,13240.00
2018-03-18T11:57:09.826Z,13232.00
2018-03-18T11:58:09.844Z,13204.00
2018-03-18T11:59:09.873Z,13224.00
2018-03-18T12:00:09.917Z,13240.00
2018-03-18T12:01:09.974Z,13324.00
2018-03-18T12:02:09.969Z,13424.00
2018-03-18T12:03:09.991Z,13452.00
2018-03-18T12:04:10.020Z,13492.00
2018-03-18T12:05:10.052Z,13556.00
2018-03-18T12:06:10.084Z,13620.00
2018-03-18T12:07:10.104Z,13640.00
2018-03-18T12:08:10.138Z,13684.00
2018-03-18T12:09:10.161Z,13720.00
2018-03-18T12:10:10.196Z,13832.00
2018-03-18T12:11:10.220Z,13868.00
2018-03-18T12:12:10.251Z,13900.00
2018-03-18T12:13:10.300Z,13928.00
2018-03-18T12:14:10.305Z,13960.00
2018-03-18T12:15:10.334Z,13956.00
2018-03-18T12:16:10.361Z,13928.00
2018-03-18T12:17:10.392Z,13888.00
2018-03-18T12:18:10.421Z,13848.00
2018-03-18T12:19:10.532Z,13792.00
2018-03-18T12:20:10.482Z,13724.00
2018-03-18T12:21:10.511Z,13596.00
2018-03-18T12:22:10.536Z,13432.00
2018-03-18T12:23:10.562Z,13232.00
2018-03-18T12:24:10.592Z,12996.00
2018-03-18T12:25:10.620Z,12748.00
2018-03-18T12:26:10.654Z,12508.00
2018-03-18T12:27:10.677Z,12276.00
2018-03-18T12:28:10.707Z,12044.00
2018-03-18T12:29:10.735Z,11848.00
2018-03-18T12:30:10.773Z,11656.00